Time;durP1;ratioP1;P1;durP2;ratioP2;P2;SDS_P1;SDS_P2;PMS_P1;PMS_P2;Temp;Humidity;BMP_temperature;BMP_pressure;BME280_temperature;BME280_humidity;BME280_pressure;Samples;Min_cycle;Max_cycle;Signal;HPM_P1;HPM_P2
2022/03/17 00:02:23;;;;;;;26.27;22.97;;;;;;;5.59;85.28;93361.47;5100414;28;20184;-75
2022/03/17 00:04:50;;;;;;;25.70;22.33;;;;;;;5.64;84.64;93373.75;5101620;28;20300;-75
2022/03/17 00:07:15;;;;;;;26.60;23.67;;;;;;;5.75;84.28;93371.13;5101147;28;20355;-75
2022/03/17 00:09:41;;;;;;;28.33;23.03;;;;;;;5.70;84.05;93363.25;5102827;28;20224;-75
2022/03/17 00:12:08;;;;;;;29.53;23.40;;;;;;;5.67;84.33;93363.72;5101536;28;20185;-75
2022/03/17 00:14:34;;;;;;;27.03;23.37;;;;;;;5.64;83.88;93366.78;5099955;28;20253;-75
2022/03/17 00:16:59;;;;;;;28.97;24.63;;;;;;;5.57;83.21;93342.78;5102424;28;20192;-75
2022/03/17 00:19:25;;;;;;;30.60;24.37;;;;;;;5.76;83.50;93357.16;5101281;28;20306;-75
2022/03/17 00:21:51;;;;;;;29.40;23.27;;;;;;;5.68;84.20;93364.50;5102567;28;20214;-75
2022/03/17 00:24:17;;;;;;;26.33;23.63;;;;;;;5.71;83.51;93369.22;5082297;28;20224;-75
2022/03/17 00:26:43;;;;;;;26.83;22.83;;;;;;;5.70;83.53;93368.44;5102637;28;20192;-75
2022/03/17 00:29:08;;;;;;;30.67;24.00;;;;;;;5.64;83.52;93345.25;5102525;28;20844;-75
2022/03/17 00:31:37;;;;;;;29.80;23.93;;;;;;;5.75;83.05;93363.34;5099056;28;20183;-76
2022/03/17 00:34:04;;;;;;;29.03;24.00;;;;;;;5.83;83.29;93370.00;5099514;28;20292;-75
2022/03/17 00:36:29;;;;;;;31.00;24.90;;;;;;;5.81;83.25;93364.22;5101389;28;20185;-75
2022/03/17 00:38:54;;;;;;;32.93;24.90;;;;;;;5.41;83.59;93309.06;5082632;28;20273;-76
2022/03/17 00:41:20;;;;;;;27.97;24.33;;;;;;;5.69;84.46;93360.91;5100450;28;20200;-75
2022/03/17 00:43:45;;;;;;;28.90;25.03;;;;;;;5.88;83.49;93381.22;5099537;28;20228;-75
2022/03/17 00:46:11;;;;;;;26.60;23.63;;;;;;;5.83;83.23;93362.22;5099679;28;20195;-75
2022/03/17 00:48:36;;;;;;;30.00;24.00;;;;;;;5.65;83.95;93367.56;5097903;28;20236;-75
2022/03/17 00:51:02;;;;;;;30.17;23.17;;;;;;;5.52;85.34;93367.81;5101498;28;20191;-75
2022/03/17 00:53:27;;;;;;;30.03;25.77;;;;;;;5.46;84.72;93348.03;5102702;28;20265;-75
2022/03/17 00:55:53;;;;;;;34.23;25.67;;;;;;;5.53;84.84;93362.41;5100028;28;20219;-75
2022/03/17 00:58:18;;;;;;;28.63;23.67;;;;;;;5.45;86.20;93370.53;5084430;28;20542;-74
2022/03/17 01:00:44;;;;;;;26.97;22.70;;;;;;;5.54;85.49;93368.38;5100069;28;20177;-75
2022/03/17 01:03:09;;;;;;;28.47;23.47;;;;;;;5.64;85.61;93390.09;5097849;28;20203;-75
2022/03/17 01:05:36;;;;;;;27.10;23.47;;;;;;;5.71;85.50;93392.53;5098912;28;20191;-75
2022/03/17 01:08:02;;;;;;;26.47;23.60;;;;;;;5.50;85.61;93373.22;5102792;28;20226;-74
2022/03/17 01:10:27;;;;;;;26.90;23.83;;;;;;;5.27;88.08;93382.81;5100039;28;20841;-74
2022/03/17 01:12:53;;;;;;;29.00;23.73;;;;;;;5.29;89.35;93396.34;5099726;28;20188;-75
2022/03/17 01:15:20;;;;;;;27.40;23.73;;;;;;;4.97;91.26;93407.03;5098821;28;20240;-75
2022/03/17 01:17:45;;;;;;;25.20;21.50;;;;;;;4.90;92.14;93398.59;5098821;28;20187;-74
2022/03/17 01:20:12;;;;;;;24.43;22.03;;;;;;;4.75;92.52;93415.56;5081466;28;20234;-75
2022/03/17 01:22:37;;;;;;;23.87;21.07;;;;;;;4.57;92.63;93403.53;5101559;28;20185;-75
2022/03/17 01:25:04;;;;;;;20.07;18.10;;;;;;;4.24;92.91;93407.59;5099266;28;20220;-75
2022/03/17 01:27:30;;;;;;;21.80;19.30;;;;;;;4.25;93.22;93402.19;5098541;28;20204;-75
2022/03/17 01:29:55;;;;;;;22.57;18.73;;;;;;;4.06;93.62;93395.50;5098825;28;20311;-75
2022/03/17 01:32:22;;;;;;;19.70;17.77;;;;;;;4.17;93.46;93422.41;5099179;28;20190;-75
2022/03/17 01:34:49;;;;;;;20.37;18.47;;;;;;;4.28;92.65;93413.91;5100582;28;20228;-75
2022/03/17 01:37:15;;;;;;;22.23;19.90;;;;;;;4.50;91.63;93417.53;5097528;28;20203;-74
2022/03/17 01:39:40;;;;;;;20.93;18.87;;;;;;;4.61;91.57;93435.66;5099729;28;20287;-75
2022/03/17 01:42:08;;;;;;;20.77;18.67;;;;;;;4.75;90.87;93431.88;5099710;28;20194;-75
2022/03/17 01:44:34;;;;;;;20.37;18.27;;;;;;;4.46;91.10;93426.75;5097823;28;20260;-75
2022/03/17 01:49:45;;;;;;;21.03;18.87;;;;;;;4.12;91.64;93383.50;5097576;28;20258;-75
2022/03/17 01:52:11;;;;;;;20.17;18.07;;;;;;;4.72;90.74;93421.97;5099354;28;20193;-75
2022/03/17 01:54:37;;;;;;;21.40;19.20;;;;;;;4.78;90.05;93423.66;5079674;28;20221;-74
2022/03/17 01:57:05;;;;;;;22.13;19.83;;;;;;;4.82;89.69;93444.72;5097424;28;20195;-75
2022/03/17 01:59:32;;;;;;;21.27;19.30;;;;;;;4.81;90.25;93433.56;5097323;28;20254;-75
2022/03/17 02:01:58;;;;;;;22.90;20.47;;;;;;;4.76;91.30;93453.34;5097803;28;20240;-75
2022/03/17 02:04:24;;;;;;;21.07;19.10;;;;;;;5.05;89.45;93446.50;5099642;28;20235;-75
2022/03/17 02:06:50;;;;;;;20.73;18.87;;;;;;;5.17;87.67;93442.16;5098264;28;20778;-75
2022/03/17 02:09:18;;;;;;;21.07;19.17;;;;;;;4.74;89.69;93430.31;5098954;28;20222;-75
2022/03/17 02:14:28;;;;;;;22.60;20.40;;;;;;;4.84;91.19;93430.53;5097190;28;20235;-75
2022/03/17 02:16:54;;;;;;;23.10;20.90;;;;;;;4.85;89.38;93408.84;5074723;28;20216;-75
2022/03/17 02:19:23;;;;;;;23.13;20.70;;;;;;;5.12;88.34;93422.09;5102448;28;20234;-73
2022/03/17 02:21:49;;;;;;;24.37;21.97;;;;;;;4.96;88.70;93423.56;5098598;28;20198;-75
2022/03/17 02:27:02;;;;;;;23.63;21.23;;;;;;;4.56;91.05;93427.78;5100360;28;20251;-74
2022/03/17 02:29:30;;;;;;;21.13;19.03;;;;;;;4.73;90.30;93425.34;5081537;28;20228;-74
2022/03/17 02:31:56;;;;;;;21.60;19.53;;;;;;;4.88;88.16;93429.09;5096228;28;20234;-75
2022/03/17 02:34:22;;;;;;;21.20;19.17;;;;;;;4.59;88.94;93432.50;5098881;28;20238;-75
2022/03/17 02:36:50;;;;;;;17.07;15.67;;;;;;;4.47;89.82;93442.03;5099071;28;20188;-75
2022/03/17 02:39:17;;;;;;;18.30;16.90;;;;;;;4.51;89.73;93445.75;5096414;28;20233;-74
2022/03/17 02:41:42;;;;;;;16.73;15.37;;;;;;;4.38;89.96;93451.13;5095833;28;20260;-75
2022/03/17 02:44:09;;;;;;;16.60;15.30;;;;;;;4.48;89.95;93441.03;5096874;28;20246;-74
2022/03/17 02:46:34;;;;;;;16.07;14.67;;;;;;;4.61;89.42;93448.59;5097743;28;20176;-74
2022/03/17 02:49:00;;;;;;;16.00;14.80;;;;;;;4.73;87.74;93453.81;5097057;28;20360;-74
2022/03/17 02:51:25;;;;;;;15.93;14.70;;;;;;;4.51;87.59;93450.16;5098012;28;20180;-74
2022/03/17 02:53:51;;;;;;;16.73;15.23;;;;;;;4.62;87.75;93464.91;5100955;28;20243;-74
2022/03/17 02:56:16;;;;;;;18.77;17.17;;;;;;;4.24;88.21;93410.97;5098032;28;20249;-74
2022/03/17 02:58:42;;;;;;;17.17;15.87;;;;;;;4.16;89.57;93454.41;5098394;28;20273;-75
2022/03/17 03:01:07;;;;;;;15.87;14.50;;;;;;;3.96;92.16;93467.56;5081733;28;20185;-75
2022/03/17 03:03:33;;;;;;;15.57;14.33;;;;;;;4.03;92.28;93470.84;5098147;28;20231;-75
2022/03/17 03:05:58;;;;;;;17.00;15.60;;;;;;;4.10;92.46;93469.00;5097536;28;20229;-74
2022/03/17 03:08:24;;;;;;;19.17;17.23;;;;;;;4.36;91.61;93476.41;5097563;28;20243;-75
2022/03/17 03:10:50;;;;;;;25.23;21.00;;;;;;;3.92;91.10;93442.41;5097736;28;20230;-75
2022/03/17 03:13:15;;;;;;;20.10;17.87;;;;;;;3.99;92.70;93477.47;5097153;28;20208;-74
2022/03/17 03:15:41;;;;;;;19.20;17.30;;;;;;;4.04;91.39;93454.38;5096637;28;20216;-75
2022/03/17 03:18:07;;;;;;;15.33;14.00;;;;;;;4.39;90.11;93485.53;5099538;28;20188;-75
2022/03/17 03:20:32;;;;;;;14.47;13.37;;;;;;;4.70;87.24;93467.94;5099777;28;20233;-74
2022/03/17 03:22:58;;;;;;;14.93;13.63;;;;;;;4.32;88.83;93488.19;5098243;28;20199;-75
2022/03/17 03:25:24;;;;;;;13.37;12.30;;;;;;;4.45;88.13;93477.66;5102467;28;20291;-74
2022/03/17 03:27:49;;;;;;;13.87;12.77;;;;;;;4.64;87.53;93471.44;5098451;28;20210;-74
2022/03/17 03:30:15;;;;;;;14.00;13.00;;;;;;;4.53;87.74;93490.28;5095462;28;20224;-75
2022/03/17 03:32:42;;;;;;;13.87;12.87;;;;;;;4.52;88.08;93496.47;5098356;28;20203;-74
2022/03/17 03:37:53;;;;;;;13.77;12.60;;;;;;;4.47;87.99;93493.75;5096463;28;20199;-74
2022/03/17 03:40:19;;;;;;;14.57;13.47;;;;;;;4.48;84.92;93490.13;5098700;28;20299;-75
2022/03/17 03:42:44;;;;;;;14.50;13.30;;;;;;;4.08;87.29;93458.06;5097164;28;20192;-75
2022/03/17 03:45:10;;;;;;;14.67;13.57;;;;;;;4.29;87.47;93477.50;5101772;28;20224;-74
2022/03/17 03:47:36;;;;;;;14.93;13.70;;;;;;;4.33;85.95;93489.75;5098056;28;20181;-75
2022/03/17 03:50:03;;;;;;;16.33;15.03;;;;;;;4.36;86.68;93497.06;5100312;28;20276;-75
2022/03/17 03:52:28;;;;;;;14.73;13.63;;;;;;;4.58;85.43;93482.66;5099791;28;20248;-74
2022/03/17 03:54:53;;;;;;;15.67;14.47;;;;;;;4.37;85.85;93480.53;5084273;28;20251;-74
2022/03/17 03:57:19;;;;;;;16.53;15.23;;;;;;;4.16;85.70;93451.81;5103113;28;20251;-74
2022/03/17 03:59:45;;;;;;;16.17;14.87;;;;;;;4.33;85.56;93515.59;5084628;28;20273;-74
2022/03/17 04:02:10;;;;;;;16.80;15.30;;;;;;;3.86;87.12;93476.84;5100238;28;20192;-74
2022/03/17 04:04:41;;;;;;;17.53;15.93;;;;;;;4.24;85.81;93498.03;5099877;28;20232;-74
2022/03/17 04:07:09;;;;;;;18.03;16.43;;;;;;;4.46;84.10;93506.88;5103201;28;20184;-74
2022/03/17 04:09:38;;;;;;;17.47;16.03;;;;;;;3.93;85.77;93473.19;5103871;28;20239;-74
2022/03/17 04:12:04;;;;;;;18.07;16.47;;;;;;;3.57;85.63;93397.53;5100331;28;20181;-72
2022/03/17 04:14:31;;;;;;;17.93;16.17;;;;;;;4.56;84.18;93520.88;5101092;28;20227;-74
2022/03/17 04:16:57;;;;;;;17.20;15.80;;;;;;;4.64;83.30;93532.69;5104180;28;20738;-73
2022/03/17 04:19:23;;;;;;;19.03;17.37;;;;;;;3.57;87.15;93496.41;5101571;28;20243;-73
2022/03/17 04:21:49;;;;;;;18.47;16.87;;;;;;;3.94;86.64;93534.16;5100622;28;20255;-72
2022/03/17 04:24:15;;;;;;;19.33;17.57;;;;;;;3.58;86.59;93476.56;5100002;28;20240;-73
2022/03/17 04:26:41;;;;;;;19.83;17.73;;;;;;;4.01;85.27;93547.00;5102848;28;20570;-73
2022/03/17 04:29:07;;;;;;;20.63;18.67;;;;;;;3.97;85.29;93541.47;5083954;28;20301;-73
2022/03/17 04:31:34;;;;;;;19.77;17.83;;;;;;;3.82;86.04;93553.97;5100653;28;20185;-74
2022/03/17 04:34:00;;;;;;;19.57;17.70;;;;;;;3.86;85.91;93557.69;5099977;28;20297;-74
2022/03/17 04:36:25;;;;;;;20.30;18.33;;;;;;;3.77;86.34;93566.72;5098626;28;20172;-73
2022/03/17 04:38:51;;;;;;;19.10;17.30;;;;;;;3.95;85.75;93548.66;5101372;28;20237;-74
2022/03/17 04:41:18;;;;;;;21.77;19.40;;;;;;;3.86;86.75;93578.34;5098634;28;20197;-73
2022/03/17 04:43:44;;;;;;;21.67;19.40;;;;;;;4.01;85.05;93575.41;5100947;28;20957;-74
2022/03/17 04:46:10;;;;;;;22.37;20.13;;;;;;;3.81;85.87;93562.72;5101146;28;20197;-80
2022/03/17 04:48:37;;;;;;;21.33;19.23;;;;;;;3.70;87.37;93572.94;5095264;28;20250;-76
2022/03/17 04:51:03;;;;;;;20.60;18.60;;;;;;;3.89;86.38;93569.41;5096537;28;20180;-75
2022/03/17 04:53:32;;;;;;;21.40;19.10;;;;;;;3.62;86.16;93573.22;5100305;28;20242;-75
2022/03/17 04:56:09;;;;;;;21.40;19.20;;;;;;;3.43;89.18;93580.13;5099273;28;20212;-78
2022/03/17 04:58:36;;;;;;;20.10;18.00;;;;;;;3.32;89.02;93560.19;5094082;28;20235;-84
2022/03/17 05:01:04;;;;;;;21.97;19.47;;;;;;;3.88;86.81;93575.53;5097440;28;20201;-81
2022/03/17 05:03:30;;;;;;;22.30;20.13;;;;;;;3.78;86.40;93560.56;5098188;28;20313;-80
2022/03/17 05:05:56;;;;;;;22.13;19.83;;;;;;;3.64;88.02;93579.78;5079313;28;20180;-79
2022/03/17 05:08:22;;;;;;;20.80;18.80;;;;;;;4.08;86.58;93579.50;5099241;28;20224;-79
2022/03/17 05:10:48;;;;;;;19.60;17.70;;;;;;;4.29;84.28;93581.69;5082393;28;20188;-85
2022/03/17 05:13:16;;;;;;;20.17;18.30;;;;;;;4.27;83.97;93593.22;5099992;28;20226;-80
2022/03/17 05:15:42;;;;;;;20.47;18.47;;;;;;;4.13;84.43;93595.16;5100310;28;20244;-80
2022/03/17 05:18:08;;;;;;;20.07;18.17;;;;;;;3.65;85.54;93594.25;5096009;28;20193;-79
2022/03/17 05:20:38;;;;;;;19.17;17.30;;;;;;;3.39;86.50;93591.09;5099673;28;20205;-80
2022/03/17 05:23:12;;;;;;;19.40;17.70;;;;;;;3.25;88.05;93600.72;5095380;28;20820;-80
2022/03/17 05:25:42;;;;;;;18.57;16.87;;;;;;;3.49;87.21;93609.50;5081391;28;20196;-80
2022/03/17 05:28:09;;;;;;;18.80;17.03;;;;;;;3.34;87.80;93591.72;5097335;28;20181;-81
2022/03/17 05:30:35;;;;;;;19.73;17.87;;;;;;;3.19;88.45;93614.47;5101220;28;20191;-85
2022/03/17 05:33:02;;;;;;;20.20;18.27;;;;;;;3.37;87.57;93591.31;5099844;28;20208;-86
2022/03/17 05:35:28;;;;;;;18.50;16.50;;;;;;;3.41;88.01;93582.13;5096081;28;20234;-77
2022/03/17 05:37:54;;;;;;;19.50;17.50;;;;;;;3.71;86.52;93619.22;5094182;28;20204;-78
2022/03/17 05:40:21;;;;;;;18.77;16.90;;;;;;;3.30;87.65;93606.03;5097665;28;20220;-76
2022/03/17 05:42:49;;;;;;;16.83;15.27;;;;;;;3.59;86.54;93631.25;5082003;28;20175;-76
2022/03/17 05:45:15;;;;;;;19.10;17.37;;;;;;;3.06;86.67;93573.28;5098095;28;20236;-77
2022/03/17 05:47:44;;;;;;;20.53;18.73;;;;;;;3.17;87.91;93650.00;5097236;28;20203;-76
2022/03/17 05:50:12;;;;;;;18.70;16.77;;;;;;;3.00;89.22;93652.25;5097364;28;20224;-77
2022/03/17 05:52:39;;;;;;;19.60;17.70;;;;;;;2.88;89.75;93645.41;5098572;28;20234;-77
2022/03/17 05:55:06;;;;;;;20.77;18.87;;;;;;;2.98;89.39;93650.91;5097942;28;20245;-76
2022/03/17 05:57:34;;;;;;;19.57;17.67;;;;;;;3.13;88.88;93662.53;5095024;28;20241;-76
2022/03/17 05:59:59;;;;;;;18.80;17.13;;;;;;;2.93;89.09;93658.47;5092227;28;20235;-76
2022/03/17 06:02:25;;;;;;;17.87;16.17;;;;;;;2.83;88.80;93651.16;5096532;28;20176;-76
2022/03/17 06:04:51;;;;;;;23.37;21.17;;;;;;;3.20;88.62;93667.66;5092627;28;20232;-77
2022/03/17 06:07:16;;;;;;;20.87;18.97;;;;;;;2.65;89.98;93637.38;5096636;28;20257;-77
2022/03/17 06:09:42;;;;;;;19.23;17.33;;;;;;;2.72;90.22;93658.78;5094527;28;20227;-76
2022/03/17 06:12:08;;;;;;;18.50;16.70;;;;;;;2.59;91.84;93663.97;5094598;28;20181;-76
2022/03/17 06:14:34;;;;;;;22.63;20.67;;;;;;;3.02;90.50;93678.66;5097147;28;20289;-76
2022/03/17 06:17:00;;;;;;;19.77;17.83;;;;;;;3.10;88.95;93675.03;5096317;28;20184;-76
2022/03/17 06:19:26;;;;;;;21.03;18.87;;;;;;;2.61;89.44;93643.94;5097567;28;20242;-76
2022/03/17 06:21:51;;;;;;;18.90;16.67;;;;;;;2.52;91.60;93652.91;5100056;28;20207;-76
2022/03/17 06:24:17;;;;;;;21.23;19.03;;;;;;;2.50;92.63;93681.47;5095607;28;20236;-76
2022/03/17 06:26:42;;;;;;;20.53;18.53;;;;;;;2.50;92.86;93670.34;5093221;28;20200;-75
2022/03/17 06:29:08;;;;;;;17.83;16.17;;;;;;;2.46;92.65;93675.13;5099630;28;20242;-76
2022/03/17 06:31:36;;;;;;;17.97;16.37;;;;;;;2.34;91.83;93686.25;5096509;28;20187;-76
2022/03/17 06:34:02;;;;;;;17.43;15.77;;;;;;;2.21;93.90;93692.22;5094074;28;20301;-76
2022/03/17 06:36:27;;;;;;;14.70;13.57;;;;;;;2.09;92.66;93649.25;5093403;28;20198;-77
2022/03/17 06:38:53;;;;;;;15.40;14.03;;;;;;;2.20;92.12;93672.63;5101958;28;20219;-76
2022/03/17 06:41:18;;;;;;;16.57;15.07;;;;;;;2.47;91.60;93693.97;5098204;28;20259;-76
2022/03/17 06:43:44;;;;;;;17.03;15.37;;;;;;;2.80;90.91;93697.22;5097505;28;20232;-77
2022/03/17 06:46:09;;;;;;;16.27;14.73;;;;;;;2.61;91.10;93698.88;5097986;28;20204;-77
2022/03/17 06:48:35;;;;;;;16.23;14.63;;;;;;;2.60;91.46;93697.28;5096665;28;20227;-76
2022/03/17 06:51:00;;;;;;;15.93;14.67;;;;;;;3.30;89.31;93696.34;5096677;28;20199;-77
2022/03/17 06:53:26;;;;;;;15.67;14.47;;;;;;;3.40;88.68;93688.94;5098219;28;20274;-79
2022/03/17 06:55:52;;;;;;;16.00;14.80;;;;;;;3.49;86.33;93671.44;5096822;28;20236;-76
2022/03/17 06:58:17;;;;;;;17.60;16.13;;;;;;;3.39;86.88;93708.03;5097798;28;20199;-77
2022/03/17 07:00:43;;;;;;;19.83;17.90;;;;;;;3.07;86.48;93659.97;5095980;28;20181;-77
2022/03/17 07:03:08;;;;;;;20.73;18.93;;;;;;;3.24;87.38;93689.44;5097887;28;20199;-77
2022/03/17 07:05:34;;;;;;;18.33;16.83;;;;;;;3.32;87.47;93691.78;5097296;28;20237;-77
2022/03/17 07:07:59;;;;;;;16.20;14.97;;;;;;;3.22;86.31;93692.22;5093479;28;20222;-77
2022/03/17 07:10:27;;;;;;;17.47;15.77;;;;;;;3.30;86.69;93699.72;5098062;28;20223;-77
2022/03/17 07:12:53;;;;;;;19.57;17.60;;;;;;;3.16;87.83;93708.53;5097211;28;20195;-77
2022/03/17 07:15:19;;;;;;;17.00;15.50;;;;;;;3.29;87.72;93725.75;5098714;28;20217;-77
2022/03/17 07:17:44;;;;;;;18.23;16.63;;;;;;;3.13;88.99;93729.59;5079523;28;20492;-77
2022/03/17 07:20:15;;;;;;;16.47;14.97;;;;;;;2.71;89.64;93708.72;5097836;28;20228;-77
2022/03/17 07:22:47;;;;;;;15.17;13.87;;;;;;;2.99;88.86;93704.84;5101070;28;20192;-77
2022/03/17 07:25:13;;;;;;;17.33;15.83;;;;;;;2.85;89.85;93728.31;5082107;28;20204;-76
2022/03/17 07:27:46;;;;;;;17.40;15.97;;;;;;;2.80;91.27;93738.47;5084431;28;20192;-76
2022/03/17 07:30:18;;;;;;;17.20;15.70;;;;;;;3.04;90.12;93740.34;5101946;28;20219;-76
2022/03/17 07:32:44;;;;;;;16.03;14.73;;;;;;;2.84;89.39;93713.84;5099569;28;20188;-77
2022/03/17 07:35:09;;;;;;;16.70;15.23;;;;;;;2.48;90.32;93711.78;5102543;28;20259;-77
2022/03/17 07:37:35;;;;;;;16.83;15.30;;;;;;;2.63;91.94;93734.75;5101251;28;20184;-77
2022/03/17 07:40:00;;;;;;;18.73;17.23;;;;;;;2.71;91.11;93727.56;5102732;28;20801;-77
2022/03/17 07:42:26;;;;;;;18.97;17.37;;;;;;;2.58;92.31;93745.69;5083597;28;20172;-76
2022/03/17 07:44:51;;;;;;;18.43;16.93;;;;;;;2.88;91.37;93740.81;5103972;28;20216;-77
2022/03/17 07:47:17;;;;;;;17.50;15.90;;;;;;;2.98;91.47;93736.00;5101752;28;20184;-77
2022/03/17 07:49:43;;;;;;;19.33;17.53;;;;;;;2.59;90.70;93715.53;5099885;28;20785;-81
2022/03/17 07:52:09;;;;;;;17.70;15.97;;;;;;;2.88;90.80;93754.50;5099551;28;20193;-80
2022/03/17 07:54:35;;;;;;;17.70;16.20;;;;;;;2.87;91.39;93754.69;5099272;28;20237;-83
2022/03/17 07:57:03;;;;;;;18.47;16.87;;;;;;;3.03;91.44;93749.09;5098638;28;20215;-87
2022/03/17 07:59:29;;;;;;;20.10;18.47;;;;;;;3.36;88.49;93736.84;5096884;28;20225;-85
2022/03/17 08:01:54;;;;;;;18.13;16.33;;;;;;;3.19;86.78;93717.69;5100206;28;20192;-83
2022/03/17 08:04:20;;;;;;;19.20;17.60;;;;;;;3.70;86.89;93746.75;5099269;28;20228;-84
2022/03/17 08:06:45;;;;;;;18.97;17.27;;;;;;;3.74;86.61;93742.75;5098961;28;20172;-88
2022/03/17 08:09:11;;;;;;;20.27;18.50;;;;;;;3.84;85.73;93737.13;5098869;28;20228;-84
2022/03/17 08:11:36;;;;;;;19.30;17.67;;;;;;;3.98;85.87;93752.31;5097472;28;20216;-83
2022/03/17 08:14:02;;;;;;;19.37;17.63;;;;;;;3.71;85.75;93750.91;5099279;28;20221;-87
2022/03/17 08:16:27;;;;;;;21.77;19.67;;;;;;;3.38;88.01;93739.97;5100745;28;20192;-85
2022/03/17 08:18:53;;;;;;;22.27;20.17;;;;;;;3.23;89.05;93739.47;5098346;28;20219;-79
2022/03/17 08:21:18;;;;;;;21.73;19.73;;;;;;;3.94;86.90;93758.13;5101092;28;20209;-85
2022/03/17 08:23:45;;;;;;;19.67;17.93;;;;;;;4.54;83.90;93759.97;5100280;28;20265;-82
2022/03/17 08:26:11;;;;;;;20.20;18.50;;;;;;;4.58;82.15;93749.00;5097256;28;20184;-84
2022/03/17 08:28:37;;;;;;;20.13;18.20;;;;;;;4.81;81.50;93746.56;5097998;28;20233;-87
2022/03/17 08:31:03;;;;;;;20.23;18.43;;;;;;;4.84;80.90;93735.78;5098300;28;20181;-87
2022/03/17 08:33:29;;;;;;;19.47;17.60;;;;;;;5.06;81.15;93753.47;5096841;28;20275;-79
2022/03/17 08:35:54;;;;;;;20.00;18.20;;;;;;;5.40;79.48;93745.84;5099615;28;20224;-83
2022/03/17 08:38:20;;;;;;;20.60;18.90;;;;;;;5.27;79.51;93751.22;5080938;28;20180;-80
2022/03/17 08:40:45;;;;;;;20.53;18.57;;;;;;;5.34;79.66;93754.50;5098437;28;20188;-80
2022/03/17 08:43:14;;;;;;;22.63;20.50;;;;;;;5.27;79.36;93750.41;5097266;28;20200;-80
2022/03/17 08:51:12;;;;;;;17.13;15.83;;;;;;;5.45;77.34;93742.63;5100151;28;20191;-77
2022/03/17 08:53:38;;;;;;;16.80;15.40;;;;;;;5.28;78.54;93736.44;5098418;28;20246;-77
2022/03/17 08:56:04;;;;;;;16.83;15.43;;;;;;;5.28;79.18;93729.47;5080498;28;20215;-79
2022/03/17 08:58:30;;;;;;;16.93;15.60;;;;;;;5.37;78.79;93766.22;5097958;28;20243;-82
2022/03/17 09:00:56;;;;;;;17.47;16.07;;;;;;;5.48;79.50;93763.69;5082749;28;20217;-77
2022/03/17 09:03:22;;;;;;;15.90;14.60;;;;;;;5.31;79.77;93761.94;5096916;28;20295;-83
2022/03/17 09:05:48;;;;;;;16.13;14.87;;;;;;;5.56;78.31;93744.44;5100252;28;20195;-83
2022/03/17 09:08:13;;;;;;;17.10;15.73;;;;;;;5.52;78.33;93758.84;5097402;28;20247;-84
2022/03/17 09:10:40;;;;;;;16.77;15.47;;;;;;;5.67;77.57;93769.59;5098781;28;20180;-84
2022/03/17 09:13:09;;;;;;;16.37;14.93;;;;;;;5.37;79.86;93774.00;5098782;28;20256;-78
2022/03/17 09:15:37;;;;;;;16.73;15.43;;;;;;;5.46;79.57;93777.88;5099515;28;20208;-78
2022/03/17 09:18:03;;;;;;;16.57;15.27;;;;;;;5.59;78.42;93785.44;5097689;28;20184;-76
2022/03/17 09:20:29;;;;;;;18.37;16.97;;;;;;;5.56;78.87;93780.72;5100726;28;20231;-78
2022/03/17 09:22:56;;;;;;;19.83;18.13;;;;;;;5.24;79.60;93774.16;5098889;28;20240;-78
2022/03/17 09:25:24;;;;;;;19.67;17.77;;;;;;;5.27;80.17;93779.69;5094746;28;20253;-79
2022/03/17 09:27:50;;;;;;;19.20;17.60;;;;;;;4.97;80.75;93795.16;5098939;28;20186;-77
2022/03/17 09:30:17;;;;;;;21.33;19.30;;;;;;;4.67;82.71;93799.44;5094287;28;20266;-79
2022/03/17 09:32:45;;;;;;;22.73;20.57;;;;;;;4.61;83.68;93797.69;5095809;28;20286;-78
2022/03/17 09:35:11;;;;;;;20.93;19.00;;;;;;;4.68;82.89;93808.00;5076631;28;20228;-77
2022/03/17 09:37:37;;;;;;;21.27;19.37;;;;;;;4.65;83.47;93796.25;5098638;28;20212;-77
2022/03/17 09:40:05;;;;;;;23.67;21.40;;;;;;;4.69;82.43;93805.19;5099311;28;20212;-78
2022/03/17 09:42:30;;;;;;;27.27;22.67;;;;;;;4.70;83.25;93811.94;5079058;28;20180;-80
2022/03/17 09:44:55;;;;;;;29.67;22.83;;;;;;;4.22;83.50;93792.84;5097916;28;20240;-78
2022/03/17 09:47:24;;;;;;;31.93;24.93;;;;;;;4.25;85.60;93820.88;5080285;28;20177;-78
2022/03/17 09:49:53;;;;;;;25.90;22.60;;;;;;;4.48;83.99;93810.72;5081493;28;20225;-79
2022/03/17 09:52:22;;;;;;;23.30;20.50;;;;;;;4.67;84.08;93811.56;5078956;28;20191;-79
2022/03/17 09:54:49;;;;;;;22.20;19.90;;;;;;;4.35;84.90;93805.69;5097847;28;20248;-86
2022/03/17 09:57:16;;;;;;;22.47;20.47;;;;;;;4.09;85.39;93821.41;5099572;28;20216;-84
2022/03/17 09:59:48;;;;;;;24.70;22.40;;;;;;;4.29;86.26;93819.47;5097178;28;20217;-85
2022/03/17 10:02:16;;;;;;;23.80;21.40;;;;;;;4.40;85.54;93823.16;5081192;28;20226;-87
2022/03/17 10:04:47;;;;;;;23.60;21.17;;;;;;;4.30;84.47;93800.34;5095719;28;20236;-81
2022/03/17 10:07:14;;;;;;;23.63;21.03;;;;;;;5.09;81.52;93805.56;5079384;28;20192;-85
2022/03/17 10:09:40;;;;;;;23.27;20.87;;;;;;;5.05;81.28;93826.91;5096528;28;20231;-86
2022/03/17 10:12:11;;;;;;;23.27;21.03;;;;;;;4.62;84.19;93812.19;5098254;28;20208;-82
2022/03/17 10:14:50;;;;;;;22.97;20.80;;;;;;;5.07;82.44;93814.56;5081538;28;20228;-83
2022/03/17 10:17:35;;;;;;;23.50;21.20;;;;;;;4.57;84.48;93830.16;5096920;28;20196;-82
2022/03/17 10:20:16;;;;;;;22.63;20.53;;;;;;;4.79;84.34;93828.75;5098824;28;20228;-84
2022/03/17 10:22:50;;;;;;;23.67;21.20;;;;;;;4.83;83.75;93832.50;5080275;28;20191;-85
2022/03/17 10:25:24;;;;;;;18.53;16.90;;;;;;;4.77;83.02;93822.22;5078638;28;20228;-84
2022/03/17 10:27:50;;;;;;;17.00;15.60;;;;;;;4.70;82.12;93827.44;5095039;28;20193;-82
2022/03/17 10:30:35;;;;;;;19.27;17.60;;;;;;;4.45;83.41;93818.91;5083649;28;20276;-82
2022/03/17 10:33:18;;;;;;;16.87;15.50;;;;;;;4.69;82.96;93825.06;5095526;28;20185;-83
2022/03/17 10:35:48;;;;;;;18.03;16.53;;;;;;;4.36;83.13;93824.56;5096608;28;20239;-80
2022/03/17 10:38:27;;;;;;;16.83;15.50;;;;;;;4.17;83.50;93835.84;5098789;28;20266;-88
2022/03/17 10:41:11;;;;;;;16.20;14.90;;;;;;;4.11;85.35;93837.47;5097042;28;20192;-88
2022/03/17 10:43:38;;;;;;;19.50;17.63;;;;;;;3.87;86.01;93838.22;5079292;28;20221;-90
2022/03/17 10:46:20;;;;;;;18.73;17.20;;;;;;;4.16;85.24;93840.22;5077408;28;20255;-86
2022/03/17 10:48:59;;;;;;;19.47;17.57;;;;;;;3.98;86.31;93839.34;5078349;28;20236;-92
2022/03/17 10:51:44;;;;;;;22.20;20.00;;;;;;;4.01;86.53;93839.72;5094194;28;20200;-87
2022/03/17 10:54:18;;;;;;;24.23;21.97;;;;;;;3.78;86.57;93812.84;5096213;28;20243;-93
2022/03/17 10:56:58;;;;;;;23.67;21.20;;;;;;;3.73;88.67;93849.63;5094477;28;20253;-90
2022/03/17 10:59:47;;;;;;;21.37;19.37;;;;;;;4.37;85.18;93832.09;5097545;28;20229;-88
2022/03/17 11:02:16;;;;;;;21.57;19.47;;;;;;;4.22;86.05;93833.41;5099183;28;20185;-87
2022/03/17 11:04:44;;;;;;;21.60;19.53;;;;;;;4.39;86.79;93845.63;5096071;28;20232;-91
2022/03/17 11:07:13;;;;;;;18.80;17.10;;;;;;;4.17;85.81;93777.19;5097809;28;20214;-85
2022/03/17 11:09:40;;;;;;;20.13;18.33;;;;;;;4.71;85.11;93820.50;5097471;28;20229;-84
2022/03/17 11:12:07;;;;;;;18.50;16.80;;;;;;;4.56;83.92;93818.22;5097098;28;20219;-84
2022/03/17 11:14:34;;;;;;;18.00;16.30;;;;;;;4.69;84.64;93841.41;5100583;28;20228;-84
2022/03/17 11:17:03;;;;;;;16.87;15.40;;;;;;;4.84;83.25;93821.16;5079412;28;20986;-84
2022/03/17 11:19:29;;;;;;;17.80;16.23;;;;;;;4.97;81.51;93813.28;5079575;28;20234;-86
2022/03/17 11:22:10;;;;;;;18.53;16.97;;;;;;;5.01;82.90;93818.81;5098686;28;20219;-84
2022/03/17 11:24:40;;;;;;;17.97;16.47;;;;;;;5.16;82.30;93837.34;5096092;28;20306;-86
2022/03/17 11:27:14;;;;;;;18.13;16.63;;;;;;;5.21;82.58;93834.94;5077276;28;20189;-83
2022/03/17 11:29:44;;;;;;;17.50;16.13;;;;;;;5.12;82.43;93835.41;5097971;28;20240;-87
2022/03/17 11:32:25;;;;;;;17.80;16.13;;;;;;;5.01;82.23;93836.94;5090425;28;20225;-88
2022/03/17 11:35:09;;;;;;;17.73;16.03;;;;;;;4.92;82.62;93831.22;5098830;28;20235;-87
2022/03/17 11:37:35;;;;;;;16.80;15.50;;;;;;;4.87;82.98;93825.13;5097673;28;20187;-85
2022/03/17 11:40:00;;;;;;;18.17;16.53;;;;;;;5.02;83.43;93833.31;5079306;28;20225;-89
2022/03/17 11:42:40;;;;;;;16.47;15.07;;;;;;;5.32;81.21;93823.06;5098239;28;20210;-80